Time;durP1;ratioP1;P1;durP2;ratioP2;P2;SDS_P1;SDS_P2;PMS_P1;PMS_P2;Temp;Humidity;BMP_temperature;BMP_pressure;BME280_temperature;BME280_humidity;BME280_pressure;Samples;Min_cycle;Max_cycle;Signal;HPM_P1;HPM_P2
2021/04/05 00:01:10;;;;;;;19.05;13.32;;;9.90;50.80;;;;;;1480922;40;20269;-61
2021/04/05 00:02:30;;;;;;;23.60;13.82;;;9.80;50.80;;;;;;1483683;40;20084;-59
2021/04/05 00:03:51;;;;;;;21.55;14.18;;;9.80;51.00;;;;;;1487024;39;20016;-59
2021/04/05 00:05:25;;;;;;;21.50;13.52;;;9.80;51.00;;;;;;1487639;39;20031;-60
2021/04/05 00:06:46;;;;;;;18.02;12.60;;;9.80;51.50;;;;;;1481434;40;20021;-60
2021/04/05 00:08:08;;;;;;;20.23;13.93;;;9.80;51.00;;;;;;1483293;40;20068;-60
2021/04/05 00:09:28;;;;;;;20.45;13.07;;;9.90;51.00;;;;;;1486397;39;20055;-59
2021/04/05 00:10:52;;;;;;;18.77;11.95;;;9.90;51.10;;;;;;1490492;39;20027;-59
2021/04/05 00:12:13;;;;;;;17.98;12.63;;;9.90;51.20;;;;;;1488204;39;20361;-60
2021/04/05 00:13:37;;;;;;;20.63;13.77;;;9.90;51.10;;;;;;1485665;39;20020;-60
2021/04/05 00:14:58;;;;;;;20.10;12.52;;;9.90;51.20;;;;;;1488908;39;20039;-61
2021/04/05 00:16:20;;;;;;;20.42;13.23;;;9.90;51.20;;;;;;1484948;39;20629;-59
2021/04/05 00:17:42;;;;;;;21.85;13.25;;;9.90;51.60;;;;;;1488208;39;20024;-60
2021/04/05 00:19:03;;;;;;;16.67;12.05;;;9.90;51.30;;;;;;1486985;39;20055;-60
2021/04/05 00:20:30;;;;;;;20.00;13.38;;;9.90;51.30;;;;;;1490963;39;20046;-60
2021/04/05 00:21:51;;;;;;;18.80;12.68;;;9.90;51.60;;;;;;1483883;40;20772;-59
2021/04/05 00:23:12;;;;;;;17.42;12.82;;;9.90;51.40;;;;;;1486026;39;20253;-59
2021/04/05 00:24:33;;;;;;;21.20;13.13;;;9.90;51.50;;;;;;1485933;39;20039;-59
2021/04/05 00:25:54;;;;;;;24.50;14.38;;;9.90;51.50;;;;;;1487179;39;20039;-59
2021/04/05 00:27:15;;;;;;;20.95;12.68;;;9.90;52.10;;;;;;1484875;39;20027;-59
2021/04/05 00:28:36;;;;;;;21.52;13.50;;;9.90;51.70;;;;;;1486078;39;20288;-59
2021/04/05 00:29:57;;;;;;;19.08;13.00;;;9.90;51.80;;;;;;1488418;39;20105;-59
2021/04/05 00:31:18;;;;;;;20.67;12.73;;;9.90;51.70;;;;;;1484317;39;20075;-59
2021/04/05 00:32:39;;;;;;;19.92;13.35;;;9.90;51.70;;;;;;1485735;39;20069;-61
2021/04/05 00:34:00;;;;;;;23.95;13.30;;;9.90;51.80;;;;;;1482678;40;20036;-59
2021/04/05 00:35:24;;;;;;;20.88;12.98;;;9.90;51.80;;;;;;1486938;39;20064;-59
2021/04/05 00:36:44;;;;;;;19.15;12.63;;;9.90;51.80;;;;;;1487087;39;20044;-60
2021/04/05 00:38:08;;;;;;;20.48;13.25;;;9.90;51.70;;;;;;1487955;40;20043;-60
2021/04/05 00:39:29;;;;;;;20.08;13.18;;;9.90;52.20;;;;;;1485632;39;20087;-59
2021/04/05 00:41:12;;;;;;;17.90;12.63;;;9.90;52.30;;;;;;1487527;39;20036;-60
2021/04/05 00:42:33;;;;;;;20.25;12.32;;;9.90;52.30;;;;;;1485360;39;20385;-59
2021/04/05 00:43:54;;;;;;;18.40;12.82;;;9.90;51.90;;;;;;1489485;39;20077;-60
2021/04/05 00:45:17;;;;;;;21.90;13.70;;;9.90;52.10;;;;;;1485387;39;20029;-59
2021/04/05 00:46:38;;;;;;;19.92;13.20;;;9.90;52.40;;;;;;1487455;39;20318;-59
2021/04/05 00:47:59;;;;;;;21.67;13.38;;;9.90;52.10;;;;;;1483819;40;20040;-60
2021/04/05 00:49:20;;;;;;;20.88;13.45;;;9.90;51.90;;;;;;1484567;39;20031;-59
2021/04/05 00:50:49;;;;;;;21.63;12.85;;;9.90;52.00;;;;;;1490677;39;20067;-60
2021/04/05 00:52:11;;;;;;;27.05;14.52;;;9.90;52.20;;;;;;1485750;39;20040;-59
2021/04/05 00:53:35;;;;;;;25.65;13.55;;;9.90;52.10;;;;;;1484811;39;20044;-60
2021/04/05 00:54:56;;;;;;;20.98;13.25;;;9.90;52.30;;;;;;1487184;39;20016;-61
2021/04/05 00:56:20;;;;;;;22.42;13.73;;;10.00;52.00;;;;;;1483055;39;20079;-59
2021/04/05 00:57:42;;;;;;;19.75;12.85;;;9.90;52.20;;;;;;1485536;39;20024;-59
2021/04/05 00:59:03;;;;;;;19.52;13.25;;;10.00;52.10;;;;;;1486146;39;20028;-60
2021/04/05 01:00:53;;;;;;;25.17;13.85;;;9.90;52.00;;;;;;1482739;40;20043;-60
2021/04/05 01:02:14;;;;;;;20.98;12.60;;;9.90;52.50;;;;;;1487296;39;20133;-60
2021/04/05 01:03:38;;;;;;;19.85;13.75;;;10.00;52.00;;;;;;1484829;39;20382;-60
2021/04/05 01:04:58;;;;;;;22.23;14.25;;;10.00;52.10;;;;;;1487442;39;20404;-59
2021/04/05 01:06:28;;;;;;;20.35;14.30;;;10.00;52.20;;;;;;1487383;39;20051;-59
2021/04/05 01:07:49;;;;;;;26.38;14.25;;;10.00;52.30;;;;;;1487788;39;20104;-58
2021/04/05 01:09:10;;;;;;;22.95;14.32;;;10.00;52.10;;;;;;1485456;39;20057;-59
2021/04/05 01:10:32;;;;;;;25.88;15.50;;;10.00;52.40;;;;;;1482950;40;20028;-59
2021/04/05 01:11:53;;;;;;;21.73;14.65;;;10.00;52.30;;;;;;1490543;39;20238;-59
2021/04/05 01:13:15;;;;;;;23.70;15.00;;;10.00;52.20;;;;;;1487982;39;20055;-59
2021/04/05 01:14:36;;;;;;;23.83;14.18;;;10.00;52.40;;;;;;1487686;39;20372;-59
2021/04/05 01:15:57;;;;;;;25.30;16.55;;;10.00;52.20;;;;;;1486738;39;20372;-59
2021/04/05 01:17:18;;;;;;;23.20;15.00;;;10.00;52.60;;;;;;1484487;39;20032;-59
2021/04/05 01:18:40;;;;;;;22.80;15.50;;;10.00;52.40;;;;;;1486526;39;20404;-59
2021/04/05 01:20:05;;;;;;;27.80;15.90;;;10.00;52.50;;;;;;1487998;39;20039;-59
2021/04/05 01:21:27;;;;;;;26.10;16.52;;;10.00;52.50;;;;;;1487644;39;20119;-59
2021/04/05 01:22:50;;;;;;;28.17;16.98;;;10.00;52.70;;;;;;1485586;39;20032;-59
2021/04/05 01:24:11;;;;;;;27.48;16.42;;;10.00;52.80;;;;;;1487657;39;20047;-60
2021/04/05 01:25:32;;;;;;;25.88;16.15;;;10.00;52.50;;;;;;1485204;39;20284;-60
2021/04/05 01:26:53;;;;;;;24.15;15.57;;;10.00;52.50;;;;;;1487117;40;20048;-59
2021/04/05 01:28:15;;;;;;;22.92;15.60;;;10.00;52.40;;;;;;1484022;39;20021;-59
2021/04/05 01:29:37;;;;;;;27.55;15.82;;;10.00;52.50;;;;;;1486767;39;20046;-59
2021/04/05 01:31:00;;;;;;;26.30;16.10;;;10.00;52.60;;;;;;1487701;39;20092;-59
2021/04/05 01:32:21;;;;;;;26.05;15.93;;;10.00;52.70;;;;;;1484462;39;20118;-59
2021/04/05 01:33:43;;;;;;;26.88;16.40;;;10.00;52.80;;;;;;1486467;39;20375;-59
2021/04/05 01:35:07;;;;;;;24.45;15.05;;;10.00;52.70;;;;;;1487542;39;20178;-59
2021/04/05 01:36:28;;;;;;;26.88;17.10;;;10.00;52.60;;;;;;1484958;39;20109;-59
2021/04/05 01:37:49;;;;;;;28.20;16.65;;;10.00;52.50;;;;;;1487043;39;20388;-59
2021/04/05 01:39:10;;;;;;;26.80;16.52;;;10.00;52.60;;;;;;1487127;39;20086;-59
2021/04/05 01:40:37;;;;;;;26.35;15.85;;;10.00;52.50;;;;;;1484889;39;20031;-59
2021/04/05 01:41:58;;;;;;;25.92;15.45;;;10.00;52.70;;;;;;1486178;39;20031;-59
2021/04/05 01:43:19;;;;;;;26.52;15.93;;;10.00;52.60;;;;;;1484291;39;20037;-59
2021/04/05 01:44:40;;;;;;;26.85;17.67;;;10.00;52.60;;;;;;1485580;39;20040;-59
2021/04/05 01:46:02;;;;;;;26.23;16.20;;;10.10;52.80;;;;;;1487447;39;20113;-59
2021/04/05 01:47:23;;;;;;;24.65;16.38;;;10.10;52.70;;;;;;1487366;39;20058;-59
2021/04/05 01:48:45;;;;;;;26.58;16.38;;;10.10;52.70;;;;;;1487414;39;20020;-60
2021/04/05 01:50:06;;;;;;;28.23;18.40;;;10.10;52.60;;;;;;1487125;39;20024;-59
2021/04/05 01:51:27;;;;;;;30.15;18.33;;;10.10;52.80;;;;;;1485066;39;20036;-59
2021/04/05 01:52:48;;;;;;;25.85;17.20;;;10.10;52.70;;;;;;1487135;40;20041;-60
2021/04/05 01:54:10;;;;;;;28.52;17.65;;;10.10;52.60;;;;;;1487930;39;20024;-59
2021/04/05 01:55:35;;;;;;;28.15;19.00;;;10.10;52.60;;;;;;1486218;39;20032;-59
2021/04/05 01:56:56;;;;;;;26.98;17.98;;;10.10;52.80;;;;;;1486856;40;20066;-59
2021/04/05 01:58:19;;;;;;;33.63;20.15;;;10.10;52.80;;;;;;1486860;39;20032;-59
2021/04/05 01:59:42;;;;;;;29.63;18.83;;;10.10;53.00;;;;;;1486096;39;20032;-59
2021/04/05 02:01:08;;;;;;;30.52;18.65;;;10.10;52.90;;;;;;1486986;39;20036;-59
2021/04/05 02:02:29;;;;;;;27.88;19.35;;;10.10;53.00;;;;;;1485583;39;20046;-60
2021/04/05 02:03:55;;;;;;;31.10;19.30;;;10.10;52.70;;;;;;1486509;39;20028;-59
2021/04/05 02:05:17;;;;;;;26.63;17.15;;;10.10;53.00;;;;;;1485051;39;20354;-60
2021/04/05 02:06:38;;;;;;;31.77;18.75;;;10.10;52.70;;;;;;1485886;39;20068;-59
2021/04/05 02:07:59;;;;;;;31.85;19.45;;;10.10;52.80;;;;;;1487531;39;20052;-59
2021/04/05 02:09:20;;;;;;;27.90;19.20;;;10.10;52.70;;;;;;1487351;39;20028;-60
2021/04/05 02:10:42;;;;;;;26.55;18.00;;;10.10;53.20;;;;;;1486083;39;20028;-60
2021/04/05 02:12:03;;;;;;;27.45;17.77;;;10.10;52.90;;;;;;1483521;40;20036;-59
2021/04/05 02:13:25;;;;;;;30.40;17.85;;;10.10;52.90;;;;;;1486264;39;20040;-59
2021/04/05 02:14:46;;;;;;;29.63;18.63;;;10.10;53.00;;;;;;1487740;39;20055;-59
2021/04/05 02:16:07;;;;;;;28.17;16.95;;;10.10;53.00;;;;;;1486599;39;20028;-59
2021/04/05 02:17:28;;;;;;;28.73;18.10;;;10.10;52.90;;;;;;1482647;40;20354;-60
2021/04/05 02:18:50;;;;;;;29.30;18.70;;;10.00;53.10;;;;;;1485623;39;20100;-60
2021/04/05 02:20:13;;;;;;;26.00;17.70;;;10.10;53.20;;;;;;1484650;39;20069;-59
2021/04/05 02:21:34;;;;;;;25.40;17.50;;;10.10;53.00;;;;;;1486216;39;20383;-60
2021/04/05 02:22:58;;;;;;;28.02;17.08;;;10.10;53.00;;;;;;1487052;39;20034;-59
2021/04/05 02:24:19;;;;;;;27.23;17.25;;;10.10;53.00;;;;;;1484581;39;20060;-60
2021/04/05 02:27:22;;;;;;;24.77;16.50;;;10.10;53.10;;;;;;1488419;39;20032;-60
2021/04/05 02:28:49;;;;;;;25.85;15.80;;;10.10;53.20;;;;;;1487031;39;20024;-59
2021/04/05 02:30:22;;;;;;;25.67;16.15;;;10.10;53.20;;;;;;1486171;39;20141;-59
2021/04/05 02:31:43;;;;;;;24.35;15.52;;;10.10;53.00;;;;;;1482018;40;20332;-60
2021/04/05 02:33:04;;;;;;;22.02;15.23;;;10.10;53.00;;;;;;1482637;40;20041;-59
2021/04/05 02:34:25;;;;;;;21.70;14.70;;;10.10;53.00;;;;;;1484336;39;20249;-59
2021/04/05 02:35:46;;;;;;;24.90;16.23;;;10.10;53.00;;;;;;1486567;39;20077;-60
2021/04/05 02:37:07;;;;;;;25.45;15.50;;;10.10;53.00;;;;;;1485844;40;20361;-59
2021/04/05 02:38:28;;;;;;;26.27;16.05;;;10.10;53.10;;;;;;1485079;39;20302;-61
2021/04/05 02:39:49;;;;;;;27.48;15.65;;;10.10;53.20;;;;;;1487873;39;20035;-60
2021/04/05 02:41:11;;;;;;;21.83;14.63;;;10.10;53.30;;;;;;1487194;39;20024;-60
2021/04/05 02:42:33;;;;;;;24.90;14.30;;;10.10;53.30;;;;;;1485178;39;20405;-59
2021/04/05 02:43:55;;;;;;;24.42;14.25;;;10.10;53.20;;;;;;1486834;39;20029;-59
2021/04/05 02:45:17;;;;;;;23.25;15.02;;;10.10;53.30;;;;;;1479299;40;20036;-60
2021/04/05 02:46:40;;;;;;;19.35;13.00;;;10.10;53.30;;;;;;1484703;39;20055;-59
2021/04/05 02:48:01;;;;;;;24.90;15.07;;;10.10;53.20;;;;;;1486812;39;20043;-59
2021/04/05 02:49:24;;;;;;;23.55;13.70;;;10.10;53.30;;;;;;1486833;39;20031;-59
2021/04/05 02:50:45;;;;;;;25.73;15.15;;;10.10;53.20;;;;;;1486039;39;20024;-59
2021/04/05 02:52:07;;;;;;;24.67;15.70;;;10.10;53.50;;;;;;1488061;39;20357;-58
2021/04/05 02:53:29;;;;;;;23.15;13.75;;;10.10;53.50;;;;;;1487516;39;20214;-59
2021/04/05 02:54:51;;;;;;;21.83;13.70;;;10.10;53.30;;;;;;1487186;39;20054;-59
2021/04/05 02:56:13;;;;;;;22.23;13.20;;;10.10;53.30;;;;;;1484595;39;20021;-59
2021/04/05 02:57:35;;;;;;;23.77;14.10;;;10.10;53.30;;;;;;1484877;39;20304;-59
2021/04/05 02:58:57;;;;;;;23.55;14.57;;;10.20;53.40;;;;;;1484195;39;20029;-59
2021/04/05 03:00:20;;;;;;;23.90;13.77;;;10.10;53.40;;;;;;1482742;40;20040;-59
2021/04/05 03:01:41;;;;;;;21.58;14.30;;;10.20;53.90;;;;;;1485280;39;20096;-59
2021/04/05 03:03:03;;;;;;;21.15;12.60;;;10.10;53.20;;;;;;1487247;39;20332;-59
2021/04/05 03:04:24;;;;;;;22.50;13.35;;;10.10;53.30;;;;;;1486950;39;20032;-60
2021/04/05 03:05:45;;;;;;;20.40;13.52;;;10.10;53.30;;;;;;1487883;39;20028;-59
2021/04/05 03:07:06;;;;;;;19.45;12.38;;;10.10;53.30;;;;;;1486733;40;20089;-59
2021/04/05 03:08:27;;;;;;;21.20;13.18;;;10.10;53.20;;;;;;1486107;39;20039;-60
2021/04/05 03:09:48;;;;;;;17.83;12.70;;;10.10;53.30;;;;;;1486531;39;20064;-59
2021/04/05 03:11:11;;;;;;;21.10;13.27;;;10.10;53.40;;;;;;1487720;39;20056;-59
2021/04/05 03:12:40;;;;;;;21.98;12.90;;;10.10;53.30;;;;;;1485071;39;20044;-59
2021/04/05 03:14:04;;;;;;;24.50;13.40;;;10.10;53.30;;;;;;1481740;40;20036;-59
2021/04/05 03:15:26;;;;;;;21.85;12.75;;;10.10;53.30;;;;;;1483584;39;20249;-59
2021/04/05 03:16:48;;;;;;;20.45;12.65;;;10.10;53.40;;;;;;1484715;39;20091;-58
2021/04/05 03:18:10;;;;;;;20.23;12.50;;;10.10;53.40;;;;;;1486315;39;20044;-58
2021/04/05 03:19:31;;;;;;;21.02;12.85;;;10.10;53.30;;;;;;1485463;39;20031;-58
2021/04/05 03:20:54;;;;;;;19.15;12.35;;;10.10;53.30;;;;;;1490705;39;20032;-59
2021/04/05 03:22:17;;;;;;;18.50;11.68;;;10.10;53.30;;;;;;1483994;40;20099;-58
2021/04/05 03:23:40;;;;;;;24.98;13.63;;;10.10;53.40;;;;;;1484419;39;20051;-58
2021/04/05 03:25:03;;;;;;;24.25;14.13;;;10.10;53.50;;;;;;1487604;39;20333;-59
2021/04/05 03:26:23;;;;;;;18.30;12.25;;;10.10;53.50;;;;;;1487177;39;20036;-58
2021/04/05 03:27:46;;;;;;;21.08;13.02;;;10.00;53.40;;;;;;1486448;39;20089;-58
2021/04/05 03:29:13;;;;;;;19.95;12.43;;;10.10;53.70;;;;;;1485026;40;20036;-58
2021/04/05 03:30:59;;;;;;;19.02;11.38;;;10.10;53.70;;;;;;1480264;40;20040;-58
2021/04/05 03:32:22;;;;;;;24.05;11.88;;;10.00;53.80;;;;;;1485486;39;20150;-59
2021/04/05 03:34:06;;;;;;;21.15;11.98;;;10.10;53.50;;;;;;1488039;39;20383;-58
2021/04/05 03:35:35;;;;;;;18.10;12.13;;;10.00;53.90;;;;;;1487032;39;20039;-58
2021/04/05 03:36:58;;;;;;;20.15;12.52;;;10.00;53.90;;;;;;1487636;39;20059;-59
2021/04/05 03:38:19;;;;;;;21.00;11.88;;;10.10;53.60;;;;;;1488049;39;20032;-58
2021/04/05 03:39:40;;;;;;;23.23;12.98;;;10.00;53.60;;;;;;1485259;39;20043;-58
2021/04/05 03:41:09;;;;;;;22.02;11.43;;;10.10;53.80;;;;;;1486243;39;20227;-58
2021/04/05 03:42:43;;;;;;;18.58;11.43;;;10.10;54.00;;;;;;1485136;39;20339;-58
2021/04/05 03:44:31;;;;;;;23.95;12.38;;;10.10;54.10;;;;;;1488870;39;20047;-58
2021/04/05 03:45:57;;;;;;;21.20;11.65;;;10.10;54.10;;;;;;1486320;39;20093;-58
2021/04/05 03:47:40;;;;;;;21.35;11.20;;;10.10;53.90;;;;;;1484611;39;20366;-59
2021/04/05 03:49:09;;;;;;;21.02;11.43;;;10.10;54.00;;;;;;1487155;39;20047;-58
2021/04/05 03:50:38;;;;;;;19.92;12.20;;;10.10;53.90;;;;;;1487172;39;20048;-59
2021/04/05 03:52:04;;;;;;;17.75;11.43;;;10.10;53.90;;;;;;1487668;39;20082;-58
2021/04/05 03:53:48;;;;;;;22.70;11.23;;;10.20;53.80;;;;;;1488074;39;20027;-58
2021/04/05 03:55:12;;;;;;;18.13;10.85;;;10.10;53.90;;;;;;1487242;40;20125;-58
2021/04/05 03:56:42;;;;;;;20.15;11.57;;;10.20;53.70;;;;;;1485272;39;20205;-58
2021/04/05 03:58:04;;;;;;;15.43;11.00;;;10.20;54.10;;;;;;1487939;39;20450;-58
2021/04/05 03:59:28;;;;;;;20.35;11.90;;;10.20;53.70;;;;;;1485285;39;20031;-58
2021/04/05 04:00:49;;;;;;;18.88;10.70;;;10.20;53.90;;;;;;1485957;39;20032;-60
2021/04/05 04:02:20;;;;;;;18.98;10.82;;;10.20;53.90;;;;;;1487085;39;20128;-57
2021/04/05 04:04:01;;;;;;;16.30;10.52;;;10.20;54.30;;;;;;1486195;39;20020;-60
2021/04/05 04:05:32;;;;;;;19.00;10.95;;;10.20;53.90;;;;;;1484815;39;20044;-61
2021/04/05 04:07:16;;;;;;;19.80;11.93;;;10.20;53.90;;;;;;1487205;39;20056;-59
2021/04/05 04:08:40;;;;;;;16.83;10.98;;;10.20;54.00;;;;;;1485673;39;20060;-59
2021/04/05 04:10:07;;;;;;;19.10;11.25;;;10.30;53.80;;;;;;1486560;39;20116;-58
2021/04/05 04:11:29;;;;;;;17.95;10.27;;;10.30;54.00;;;;;;1491532;39;20027;-60
2021/04/05 04:12:52;;;;;;;20.98;11.13;;;10.20;53.80;;;;;;1489422;39;20020;-58
2021/04/05 04:14:16;;;;;;;22.85;11.95;;;10.30;54.50;;;;;;1481443;40;20025;-60
2021/04/05 04:15:38;;;;;;;21.58;12.20;;;10.20;54.00;;;;;;1484617;39;20298;-60
2021/04/05 04:16:59;;;;;;;18.13;11.13;;;10.30;54.10;;;;;;1487985;39;20032;-58
2021/04/05 04:18:21;;;;;;;19.08;11.10;;;10.20;53.90;;;;;;1484521;39;20041;-59
2021/04/05 04:19:42;;;;;;;22.83;11.95;;;10.30;54.00;;;;;;1487998;39;20362;-58
2021/04/05 04:21:08;;;;;;;19.75;12.05;;;10.20;53.90;;;;;;1485349;39;20035;-58
2021/04/05 04:22:31;;;;;;;18.55;10.88;;;10.20;54.10;;;;;;1481380;40;20081;-60
2021/04/05 04:23:52;;;;;;;21.83;11.02;;;10.30;54.00;;;;;;1485932;40;20043;-60
2021/04/05 04:25:16;;;;;;;17.95;11.38;;;10.20;54.00;;;;;;1487254;39;20257;-60
2021/04/05 04:26:37;;;;;;;22.00;11.65;;;10.20;54.00;;;;;;1486235;39;20140;-60
2021/04/05 04:27:58;;;;;;;20.08;12.20;;;10.20;53.90;;;;;;1487726;39;20111;-60
2021/04/05 04:29:21;;;;;;;23.65;11.57;;;10.20;54.00;;;;;;1484900;39;20260;-59
2021/04/05 04:30:42;;;;;;;19.48;12.10;;;10.20;54.20;;;;;;1486666;39;20134;-60
2021/04/05 04:32:04;;;;;;;19.42;11.98;;;10.20;54.10;;;;;;1486062;39;20032;-60
2021/04/05 04:33:26;;;;;;;19.63;11.70;;;10.30;54.30;;;;;;1487427;39;20305;-60
2021/04/05 04:34:47;;;;;;;15.85;10.07;;;10.20;54.30;;;;;;1487105;39;20036;-60
2021/04/05 04:36:08;;;;;;;20.42;11.25;;;10.20;54.20;;;;;;1486987;40;20029;-60
2021/04/05 04:37:29;;;;;;;21.10;11.25;;;10.20;54.30;;;;;;1487680;39;20269;-60
2021/04/05 04:38:55;;;;;;;16.63;11.07;;;10.20;54.30;;;;;;1487311;39;20133;-60
2021/04/05 04:40:21;;;;;;;22.02;12.10;;;10.20;54.50;;;;;;1484913;39;20035;-60
2021/04/05 04:41:43;;;;;;;17.65;10.38;;;10.20;54.60;;;;;;1486334;39;20031;-60
2021/04/05 04:43:06;;;;;;;22.63;11.95;;;10.20;54.40;;;;;;1486769;39;20319;-60
2021/04/05 04:44:27;;;;;;;20.85;11.27;;;10.20;54.60;;;;;;1486947;39;20410;-60
2021/04/05 04:45:48;;;;;;;18.42;11.30;;;10.20;54.60;;;;;;1487788;39;20024;-60
2021/04/05 04:47:09;;;;;;;18.23;11.95;;;10.20;54.90;;;;;;1487704;39;20032;-59
2021/04/05 04:48:30;;;;;;;21.95;11.70;;;10.20;54.70;;;;;;1485590;39;20048;-60
2021/04/05 04:49:51;;;;;;;19.85;11.75;;;10.20;54.80;;;;;;1487847;39;20035;-60
2021/04/05 04:51:11;;;;;;;22.10;11.38;;;10.20;54.80;;;;;;1478728;40;20048;-60
2021/04/05 04:52:32;;;;;;;20.65;11.45;;;10.20;54.80;;;;;;1485468;39;20036;-60
2021/04/05 04:53:55;;;;;;;20.35;11.98;;;10.20;54.80;;;;;;1486917;39;20514;-61
2021/04/05 04:55:16;;;;;;;20.38;12.18;;;10.20;55.00;;;;;;1484075;39;20028;-59
2021/04/05 04:56:38;;;;;;;18.60;12.68;;;10.20;55.00;;;;;;1486335;39;20089;-60
2021/04/05 04:58:03;;;;;;;24.50;13.50;;;10.20;55.10;;;;;;1488862;39;20249;-59
2021/04/05 04:59:26;;;;;;;22.50;13.95;;;10.20;55.10;;;;;;1485843;39;20057;-60
2021/04/05 05:00:47;;;;;;;20.30;12.00;;;10.20;55.30;;;;;;1487146;39;20308;-60
2021/04/05 05:02:09;;;;;;;23.92;12.43;;;10.20;55.10;;;;;;1487816;39;20084;-60
2021/04/05 05:03:31;;;;;;;16.40;11.38;;;10.20;55.10;;;;;;1485775;39;20957;-60
2021/04/05 05:04:54;;;;;;;21.95;12.48;;;10.20;55.60;;;;;;1486102;39;20020;-60
2021/04/05 05:06:16;;;;;;;20.52;11.82;;;10.20;55.10;;;;;;1487234;39;20032;-60
2021/04/05 05:07:38;;;;;;;20.75;12.43;;;10.20;55.10;;;;;;1485612;39;20317;-60
2021/04/05 05:09:01;;;;;;;19.98;13.00;;;10.20;55.20;;;;;;1482352;40;20044;-59
2021/04/05 05:10:24;;;;;;;25.45;12.77;;;10.20;55.20;;;;;;1483846;39;20471;-60
2021/04/05 05:11:46;;;;;;;19.08;12.68;;;10.20;55.30;;;;;;1487694;39;20065;-60
2021/04/05 05:13:07;;;;;;;18.52;11.60;;;10.20;55.40;;;;;;1486899;39;20317;-60
2021/04/05 05:14:28;;;;;;;24.25;14.68;;;10.20;55.30;;;;;;1485156;39;20029;-60
2021/04/05 05:15:51;;;;;;;23.95;13.27;;;10.30;55.40;;;;;;1487902;39;20076;-60
2021/04/05 05:17:12;;;;;;;19.00;12.75;;;10.20;55.40;;;;;;1488056;39;20064;-60
2021/04/05 05:18:35;;;;;;;22.63;13.52;;;10.20;55.50;;;;;;1486233;39;20299;-60
2021/04/05 05:19:56;;;;;;;23.48;13.77;;;10.20;55.50;;;;;;1484279;39;20327;-60
2021/04/05 05:21:52;;;;;;;23.35;13.75;;;10.20;55.50;;;;;;1485254;39;20036;-60
2021/04/05 05:23:17;;;;;;;23.00;12.15;;;10.20;55.90;;;;;;1487246;39;20040;-60
2021/04/05 05:24:42;;;;;;;23.38;12.93;;;10.20;55.40;;;;;;1485449;39;20155;-60
2021/04/05 05:26:04;;;;;;;23.33;13.07;;;10.20;55.40;;;;;;1486188;39;20543;-60
2021/04/05 05:27:27;;;;;;;19.63;12.93;;;10.20;55.60;;;;;;1487391;39;20028;-61
2021/04/05 05:28:52;;;;;;;20.33;12.60;;;10.20;55.90;;;;;;1487656;39;20032;-60
2021/04/05 05:30:20;;;;;;;21.30;12.52;;;10.20;56.00;;;;;;1482636;40;20066;-60
2021/04/05 05:31:42;;;;;;;22.83;12.25;;;10.20;55.90;;;;;;1484585;39;20253;-60
2021/04/05 05:33:07;;;;;;;22.23;12.93;;;10.20;55.80;;;;;;1487835;39;20040;-60
2021/04/05 05:34:29;;;;;;;25.23;14.13;;;10.20;56.10;;;;;;1487295;39;20044;-60
2021/04/05 05:35:52;;;;;;;28.67;14.90;;;10.20;56.10;;;;;;1486729;39;20040;-60
2021/04/05 05:37:14;;;;;;;25.08;13.82;;;10.10;56.30;;;;;;1487329;39;20032;-60
2021/04/05 05:38:35;;;;;;;26.08;14.50;;;10.20;56.20;;;;;;1485819;39;20028;-59
2021/04/05 05:39:56;;;;;;;24.20;13.13;;;10.10;56.20;;;;;;1487859;39;20355;-60
2021/04/05 05:41:39;;;;;;;23.70;14.90;;;10.10;56.30;;;;;;1484352;39;20074;-60
2021/04/05 05:43:30;;;;;;;18.48;11.65;;;10.10;56.70;;;;;;1488139;39;20036;-60
2021/04/05 05:45:03;;;;;;;22.83;13.23;;;10.10;56.50;;;;;;1488559;39;20028;-60
2021/04/05 05:46:57;;;;;;;24.80;14.38;;;10.20;56.40;;;;;;1483142;39;20040;-60
2021/04/05 05:48:47;;;;;;;25.30;13.50;;;10.10;56.80;;;;;;1483642;39;20035;-60
2021/04/05 05:50:24;;;;;;;26.00;13.93;;;10.10;56.70;;;;;;1486894;39;20046;-60
2021/04/05 05:52:22;;;;;;;20.42;12.93;;;10.10;56.30;;;;;;1486534;39;20020;-60
2021/04/05 05:54:00;;;;;;;22.00;12.45;;;10.10;56.60;;;;;;1486894;39;20051;-60
2021/04/05 05:55:53;;;;;;;21.27;13.15;;;10.10;56.50;;;;;;1487063;39;20040;-58
2021/04/05 05:57:21;;;;;;;18.23;12.20;;;10.10;56.50;;;;;;1483468;39;20076;-59
2021/04/05 05:59:09;;;;;;;25.27;13.68;;;10.20;56.30;;;;;;1484725;39;20047;-58
2021/04/05 06:00:36;;;;;;;25.70;13.43;;;10.20;56.60;;;;;;1486460;39;20051;-58
2021/04/05 06:02:20;;;;;;;23.92;13.18;;;10.20;56.40;;;;;;1484932;39;20030;-59
2021/04/05 06:03:53;;;;;;;21.85;13.35;;;10.20;56.50;;;;;;1486165;39;20462;-57
2021/04/05 06:05:31;;;;;;;21.50;13.77;;;10.20;56.60;;;;;;1486694;39;20089;-58
2021/04/05 06:06:52;;;;;;;21.92;13.05;;;10.20;56.30;;;;;;1487838;39;20040;-58
2021/04/05 06:08:28;;;;;;;27.27;15.38;;;10.20;56.30;;;;;;1486563;39;20162;-59
2021/04/05 06:10:20;;;;;;;28.52;15.10;;;10.20;56.80;;;;;;1482992;40;20072;-58
2021/04/05 06:12:02;;;;;;;24.38;13.85;;;10.20;57.10;;;;;;1486261;39;20052;-58
2021/04/05 06:13:41;;;;;;;17.75;11.88;;;10.20;56.70;;;;;;1483459;39;20048;-58
2021/04/05 06:15:21;;;;;;;22.90;14.07;;;10.20;56.80;;;;;;1486175;39;20044;-57
2021/04/05 06:17:18;;;;;;;21.48;13.20;;;10.20;57.00;;;;;;1485151;39;20050;-57
2021/04/05 06:18:52;;;;;;;25.95;13.98;;;10.20;57.20;;;;;;1485858;39;20044;-57
2021/04/05 06:20:18;;;;;;;23.02;13.30;;;10.20;56.90;;;;;;1483880;39;20028;-55
2021/04/05 06:22:04;;;;;;;26.63;13.95;;;10.20;56.80;;;;;;1487295;39;20127;-57
2021/04/05 06:23:38;;;;;;;22.92;14.30;;;10.20;57.00;;;;;;1484598;39;20036;-58
2021/04/05 06:25:29;;;;;;;28.13;15.40;;;10.20;56.80;;;;;;1487441;39;20035;-57
2021/04/05 06:27:04;;;;;;;24.73;14.55;;;10.20;57.20;;;;;;1486210;39;20032;-56
2021/04/05 06:28:34;;;;;;;24.90;14.90;;;10.20;57.10;;;;;;1485139;39;20035;-57
2021/04/05 06:30:25;;;;;;;23.13;14.25;;;10.20;57.50;;;;;;1486381;39;20024;-58
2021/04/05 06:31:58;;;;;;;23.73;14.43;;;10.20;57.60;;;;;;1485061;39;20072;-58
2021/04/05 06:33:41;;;;;;;24.55;14.82;;;10.20;57.50;;;;;;1483847;39;20063;-57
2021/04/05 06:35:39;;;;;;;25.10;14.48;;;10.20;57.80;;;;;;1485262;39;20032;-59
2021/04/05 06:37:29;;;;;;;26.60;14.60;;;10.20;57.70;;;;;;1484547;39;20029;-58
2021/04/05 06:38:56;;;;;;;24.10;14.20;;;10.20;57.70;;;;;;1486070;39;20355;-58
2021/04/05 06:40:21;;;;;;;23.90;14.95;;;10.20;57.30;;;;;;1484392;39;20049;-58
2021/04/05 06:42:19;;;;;;;23.55;15.18;;;10.20;57.20;;;;;;1486334;39;20026;-58
2021/04/05 06:44:15;;;;;;;25.02;14.25;;;10.20;58.10;;;;;;1485512;40;20032;-58
2021/04/05 06:45:54;;;;;;;25.08;14.18;;;10.20;58.10;;;;;;1485355;39;20035;-56
2021/04/05 06:47:36;;;;;;;26.13;14.77;;;10.20;57.70;;;;;;1486733;39;20126;-58
2021/04/05 06:49:33;;;;;;;21.75;14.55;;;10.20;57.50;;;;;;1485366;39;20210;-59
2021/04/05 06:51:23;;;;;;;30.15;17.45;;;10.20;58.10;;;;;;1485895;39;20067;-59
2021/04/05 06:53:00;;;;;;;26.30;15.30;;;10.20;58.20;;;;;;1487679;39;20080;-60
2021/04/05 06:54:36;;;;;;;22.25;14.10;;;10.30;57.60;;;;;;1484192;39;20041;-60
2021/04/05 06:55:58;;;;;;;25.98;15.38;;;10.20;57.90;;;;;;1486645;39;20372;-60
2021/04/05 06:57:26;;;;;;;29.83;15.23;;;10.30;58.10;;;;;;1487778;39;20037;-60
2021/04/05 06:59:16;;;;;;;25.58;15.95;;;10.30;58.00;;;;;;1486838;39;20048;-60
2021/04/05 07:01:14;;;;;;;27.50;14.50;;;10.30;58.30;;;;;;1486959;39;20375;-60
2021/04/05 07:02:35;;;;;;;22.52;14.45;;;10.30;58.40;;;;;;1488420;39;20040;-60
2021/04/05 07:04:21;;;;;;;26.77;14.95;;;10.30;57.80;;;;;;1487677;39;20039;-60
2021/04/05 07:05:59;;;;;;;21.75;14.32;;;10.30;58.20;;;;;;1486181;39;20024;-60
2021/04/05 07:07:20;;;;;;;21.50;13.73;;;10.30;57.90;;;;;;1487206;39;20036;-59
2021/04/05 07:08:50;;;;;;;25.70;14.73;;;10.40;58.00;;;;;;1488853;39;20076;-60
2021/04/05 07:10:20;;;;;;;;;;;10.40;58.00;;;;;;1488634;39;20013;-60
2021/04/05 07:12:35;;;;;;;23.30;13.10;;;10.40;58.40;;;;;;1481525;40;19972;-60
2021/04/05 07:14:17;;;;;;;23.10;13.88;;;10.40;58.20;;;;;;1478697;40;20092;-60
2021/04/05 07:15:57;;;;;;;24.38;15.40;;;10.50;58.10;;;;;;1478763;40;20033;-60
2021/04/05 07:17:31;;;;;;;24.35;14.98;;;10.50;58.80;;;;;;1485976;39;20092;-61
2021/04/05 07:19:17;;;;;;;29.20;15.65;;;10.50;58.50;;;;;;1486872;39;20032;-60
2021/04/05 07:20:56;;;;;;;22.65;14.75;;;10.50;58.50;;;;;;1485821;39;20036;-60
2021/04/05 07:22:27;;;;;;;21.02;13.95;;;10.50;58.10;;;;;;1485941;39;20047;-60
2021/04/05 07:24:19;;;;;;;23.95;14.60;;;10.50;58.20;;;;;;1486265;39;20385;-60